Time;durP1;ratioP1;P1;durP2;ratioP2;P2;SDS_P1;SDS_P2;PMS_P1;PMS_P2;Temp;Humidity;BMP_temperature;BMP_pressure;BME280_temperature;BME280_humidity;BME280_pressure;Samples;Min_cycle;Max_cycle;Signal;HPM_P1;HPM_P2
2022/12/01 00:02:02;;;;;;;163.52;51.90;;;;;;;;;;4984818;28;20165;-71
2022/12/01 00:04:28;;;;;;;176.13;55.22;;;;;;;;;;4992097;28;20037;-71
2022/12/01 00:06:54;;;;;;;172.65;56.20;;;;;;;;;;4983195;28;20068;-71
2022/12/01 00:12:05;;;;;;;157.85;50.25;;;;;;;;;;4981395;28;20037;-71
2022/12/01 00:14:31;;;;;;;162.63;52.60;;;;;;;;;;4981577;28;20990;-71
2022/12/01 00:16:58;;;;;;;169.32;52.72;;;;;;;;;;4995788;28;20037;-72
2022/12/01 00:19:26;;;;;;;168.38;52.70;;;;;;;;;;4982329;28;20049;-72
2022/12/01 00:21:52;;;;;;;163.82;52.85;;;;;;;;;;4981418;28;20073;-71
2022/12/01 00:24:18;;;;;;;159.75;52.67;;;;;;;;;;4980990;28;21057;-71
2022/12/01 00:26:43;;;;;;;165.52;52.95;;;;;;;;;;4983701;28;20713;-71
2022/12/01 00:29:09;;;;;;;164.00;52.70;;;;;;;;;;4985980;28;20124;-72
2022/12/01 00:31:37;;;;;;;173.63;53.35;;;;;;;;;;4980319;28;20182;-72
2022/12/01 00:34:05;;;;;;;159.60;50.97;;;;;;;;;;4981906;28;20125;-72
2022/12/01 00:36:31;;;;;;;162.88;51.13;;;;;;;;;;4983533;28;20041;-71
2022/12/01 00:38:56;;;;;;;171.45;52.38;;;;;;;;;;4983175;28;20142;-71
2022/12/01 00:41:23;;;;;;;160.38;52.63;;;;;;;;;;4996434;28;20128;-72
2022/12/01 00:43:49;;;;;;;169.10;53.05;;;;;;;;;;4981715;28;20809;-71
2022/12/01 00:46:15;;;;;;;159.82;51.10;;;;;;;;;;4981940;28;20486;-72
2022/12/01 00:48:44;;;;;;;164.05;53.60;;;;;;;;;;4970061;28;20861;-71
2022/12/01 00:51:12;;;;;;;170.82;53.63;;;;;;;;;;4980102;28;20585;-72
2022/12/01 00:53:37;;;;;;;183.65;56.65;;;;;;;;;;4978468;28;20033;-71
2022/12/01 00:56:05;;;;;;;165.15;53.72;;;;;;;;;;4982244;28;20042;-72
2022/12/01 00:58:31;;;;;;;177.27;55.65;;;;;;;;;;4980374;28;20045;-72
2022/12/01 01:00:57;;;;;;;180.23;56.80;;;;;;;;;;4981396;28;20123;-71
2022/12/01 01:03:23;;;;;;;174.75;56.47;;;;;;;;;;4980302;28;20075;-72
2022/12/01 01:05:48;;;;;;;182.27;54.42;;;;;;;;;;4983162;28;20042;-72
2022/12/01 01:08:13;;;;;;;185.82;57.70;;;;;;;;;;4981805;28;20037;-72
2022/12/01 01:10:42;;;;;;;185.32;56.55;;;;;;;;;;4977025;28;20164;-72
2022/12/01 01:13:09;;;;;;;165.07;53.72;;;;;;;;;;5011794;28;20045;-72
2022/12/01 01:15:37;;;;;;;176.43;55.67;;;;;;;;;;5011310;28;20135;-71
2022/12/01 01:18:03;;;;;;;177.75;56.03;;;;;;;;;;4983340;28;20144;-72
2022/12/01 01:20:29;;;;;;;178.07;53.10;;;;;;;;;;4977744;28;20239;-72
2022/12/01 01:22:54;;;;;;;183.65;55.83;;;;;;;;;;4998162;28;20754;-72
2022/12/01 01:25:20;;;;;;;178.13;55.70;;;;;;;;;;4980037;28;20928;-72
2022/12/01 01:27:45;;;;;;;158.02;52.67;;;;;;;;;;4982707;28;20049;-72
2022/12/01 01:30:12;;;;;;;179.35;55.92;;;;;;;;;;4982507;28;20313;-72
2022/12/01 01:32:37;;;;;;;177.32;54.85;;;;;;;;;;4980937;28;20341;-72
2022/12/01 01:35:02;;;;;;;172.70;55.88;;;;;;;;;;4979073;28;21071;-70
2022/12/01 01:37:28;;;;;;;166.48;52.33;;;;;;;;;;4983495;28;20624;-72
2022/12/01 01:39:53;;;;;;;173.52;52.25;;;;;;;;;;4982720;28;20037;-72
2022/12/01 01:42:21;;;;;;;162.88;53.50;;;;;;;;;;4980884;28;20050;-71
2022/12/01 01:44:47;;;;;;;159.50;49.28;;;;;;;;;;4979322;28;20106;-72
2022/12/01 01:47:14;;;;;;;173.98;50.38;;;;;;;;;;4980223;28;20033;-71
2022/12/01 01:49:40;;;;;;;153.70;49.88;;;;;;;;;;4979751;28;20042;-72
2022/12/01 01:52:08;;;;;;;168.88;49.63;;;;;;;;;;4980057;28;20042;-71
2022/12/01 01:54:35;;;;;;;168.07;49.67;;;;;;;;;;4992104;28;20123;-71
2022/12/01 01:57:02;;;;;;;164.00;48.58;;;;;;;;;;4991339;28;20041;-71
2022/12/01 01:59:33;;;;;;;140.85;47.97;;;;;;;;;;4983026;28;20183;-72
2022/12/01 02:02:05;;;;;;;158.82;47.83;;;;;;;;;;4981870;28;20037;-71
2022/12/01 02:04:33;;;;;;;154.30;49.47;;;;;;;;;;4983002;28;20045;-71
2022/12/01 02:07:00;;;;;;;165.63;48.13;;;;;;;;;;4984059;28;20031;-71
2022/12/01 02:09:26;;;;;;;160.43;49.50;;;;;;;;;;4982630;28;22280;-71
2022/12/01 02:12:03;;;;;;;148.70;46.60;;;;;;;;;;4965085;28;20033;-71
2022/12/01 02:14:39;;;;;;;155.93;46.80;;;;;;;;;;4981203;28;20056;-71
2022/12/01 02:17:15;;;;;;;170.13;46.38;;;;;;;;;;4983661;28;20031;-71
2022/12/01 02:19:43;;;;;;;149.45;45.47;;;;;;;;;;4988461;28;20102;-71
2022/12/01 02:22:12;;;;;;;148.38;48.08;;;;;;;;;;4999249;28;20144;-71
2022/12/01 02:24:51;;;;;;;131.93;43.17;;;;;;;;;;4995851;28;20037;-71
2022/12/01 02:27:43;;;;;;;150.80;48.30;;;;;;;;;;4994847;28;21509;-71
2022/12/01 02:30:09;;;;;;;160.20;49.00;;;;;;;;;;4976724;28;20815;-71
2022/12/01 02:32:34;;;;;;;166.82;51.13;;;;;;;;;;4992929;28;20041;-71
2022/12/01 02:35:14;;;;;;;157.48;49.88;;;;;;;;;;5002727;28;20142;-71
2022/12/01 02:37:57;;;;;;;157.90;47.53;;;;;;;;;;5016227;28;20037;-71
2022/12/01 02:40:28;;;;;;;176.43;52.00;;;;;;;;;;5025984;28;20049;-69
2022/12/01 02:42:58;;;;;;;175.07;55.50;;;;;;;;;;4999664;28;20580;-68
2022/12/01 02:45:42;;;;;;;185.70;55.00;;;;;;;;;;4996523;28;20049;-68
2022/12/01 02:48:13;;;;;;;194.15;57.33;;;;;;;;;;4978560;28;20044;-71
2022/12/01 02:50:41;;;;;;;189.57;54.70;;;;;;;;;;5003986;28;20072;-71
2022/12/01 02:53:09;;;;;;;203.15;57.55;;;;;;;;;;4987750;28;20790;-71
2022/12/01 02:55:34;;;;;;;199.40;56.60;;;;;;;;;;4983975;28;20071;-71
2022/12/01 02:58:00;;;;;;;190.90;56.42;;;;;;;;;;4980831;28;20041;-68
2022/12/01 03:00:30;;;;;;;199.15;55.42;;;;;;;;;;4976595;28;20724;-68
2022/12/01 03:02:55;;;;;;;186.85;53.95;;;;;;;;;;4981570;28;20937;-68
2022/12/01 03:05:26;;;;;;;190.07;54.22;;;;;;;;;;4969623;28;20838;-68
2022/12/01 03:08:12;;;;;;;199.48;54.83;;;;;;;;;;4978519;28;20061;-68
2022/12/01 03:10:38;;;;;;;202.20;52.38;;;;;;;;;;4980272;28;20034;-68
2022/12/01 03:13:20;;;;;;;170.55;51.88;;;;;;;;;;4991840;28;20041;-68
2022/12/01 03:15:48;;;;;;;188.38;55.33;;;;;;;;;;5003815;28;22308;-69
2022/12/01 03:18:26;;;;;;;200.48;56.83;;;;;;;;;;5000601;28;20052;-68
2022/12/01 03:21:05;;;;;;;188.23;53.75;;;;;;;;;;5002227;28;20162;-68
2022/12/01 03:23:35;;;;;;;176.45;50.40;;;;;;;;;;5032447;28;20045;-68
2022/12/01 03:26:02;;;;;;;184.45;50.35;;;;;;;;;;5005157;28;20032;-68
2022/12/01 03:28:30;;;;;;;175.57;49.55;;;;;;;;;;4997914;28;20043;-69
2022/12/01 03:31:00;;;;;;;185.23;50.50;;;;;;;;;;4982225;28;20068;-69
2022/12/01 03:33:28;;;;;;;189.68;49.40;;;;;;;;;;4972288;28;22489;-68
2022/12/01 03:35:59;;;;;;;194.90;51.00;;;;;;;;;;4989690;28;20127;-68
2022/12/01 03:38:26;;;;;;;177.65;49.90;;;;;;;;;;4983957;28;20129;-68
2022/12/01 03:40:54;;;;;;;186.52;51.28;;;;;;;;;;4981615;28;20248;-68
2022/12/01 03:43:23;;;;;;;196.15;53.42;;;;;;;;;;4980907;28;20046;-69
2022/12/01 03:46:01;;;;;;;191.48;53.25;;;;;;;;;;4972005;28;20119;-68
2022/12/01 03:48:27;;;;;;;204.88;56.40;;;;;;;;;;4999523;28;20103;-68
2022/12/01 03:51:09;;;;;;;206.13;59.40;;;;;;;;;;4975362;28;20765;-69
2022/12/01 03:53:45;;;;;;;186.15;53.17;;;;;;;;;;4981507;28;20088;-68
2022/12/01 03:56:12;;;;;;;209.45;54.35;;;;;;;;;;4981764;28;20042;-69
2022/12/01 03:58:42;;;;;;;184.15;52.72;;;;;;;;;;4976589;28;20921;-68
2022/12/01 04:01:11;;;;;;;196.98;53.78;;;;;;;;;;4979245;28;20033;-69
2022/12/01 04:03:36;;;;;;;181.90;48.42;;;;;;;;;;4996549;28;20119;-69
2022/12/01 04:06:01;;;;;;;185.93;53.28;;;;;;;;;;4983210;28;20045;-69
2022/12/01 04:08:32;;;;;;;185.05;52.45;;;;;;;;;;4980009;28;20067;-69
2022/12/01 04:12:27;;;;;;;204.52;55.85;;;;;;;;;;4977968;28;20030;-69
2022/12/01 04:13:45;;;;;;;211.07;57.03;;;;;;;;;;4992236;28;20989;-69
2022/12/01 04:16:11;;;;;;;204.50;54.97;;;;;;;;;;5021110;28;20036;-69
2022/12/01 04:18:37;;;;;;;203.50;54.35;;;;;;;;;;4994638;28;20101;-69
2022/12/01 04:21:03;;;;;;;212.50;56.53;;;;;;;;;;5010052;28;20963;-69
2022/12/01 04:26:12;;;;;;;219.18;58.95;;;;;;;;;;5005201;28;20037;-69
2022/12/01 04:28:41;;;;;;;215.57;58.22;;;;;;;;;;5003310;28;20116;-69
2022/12/01 04:31:07;;;;;;;211.10;58.05;;;;;;;;;;4993133;28;21704;-69
2022/12/01 04:33:32;;;;;;;202.52;56.25;;;;;;;;;;5002145;28;20967;-69
2022/12/01 04:35:58;;;;;;;222.48;54.90;;;;;;;;;;4981645;28;20053;-69
2022/12/01 04:38:24;;;;;;;191.98;55.10;;;;;;;;;;4977995;28;20044;-69
2022/12/01 04:40:49;;;;;;;213.57;57.15;;;;;;;;;;4981159;28;20045;-69
2022/12/01 04:43:15;;;;;;;212.57;58.00;;;;;;;;;;4981134;28;20052;-68
2022/12/01 04:45:40;;;;;;;229.20;58.58;;;;;;;;;;4964053;28;20048;-68
2022/12/01 04:48:08;;;;;;;216.30;57.58;;;;;;;;;;4980267;28;20033;-69
2022/12/01 04:50:34;;;;;;;229.02;62.05;;;;;;;;;;4992700;28;20036;-69
2022/12/01 04:52:59;;;;;;;240.80;64.63;;;;;;;;;;4997298;28;20087;-69
2022/12/01 04:55:25;;;;;;;224.75;63.42;;;;;;;;;;5001136;28;20057;-69
2022/12/01 04:57:50;;;;;;;234.63;64.07;;;;;;;;;;5000994;28;20044;-69
2022/12/01 05:00:17;;;;;;;224.73;63.55;;;;;;;;;;5000898;28;20033;-69
2022/12/01 05:02:43;;;;;;;247.40;65.55;;;;;;;;;;4999138;28;20041;-69
2022/12/01 05:05:09;;;;;;;236.77;65.75;;;;;;;;;;5004499;28;20040;-70
2022/12/01 05:07:35;;;;;;;216.02;62.85;;;;;;;;;;4999999;28;20128;-69
2022/12/01 05:10:00;;;;;;;231.38;63.90;;;;;;;;;;5001783;28;20037;-69
2022/12/01 05:12:25;;;;;;;243.82;63.95;;;;;;;;;;4996020;28;20719;-69
2022/12/01 05:14:51;;;;;;;235.68;63.75;;;;;;;;;;4998463;28;20065;-69
2022/12/01 05:17:16;;;;;;;233.95;61.78;;;;;;;;;;5004221;28;20161;-69
2022/12/01 05:22:32;;;;;;;235.90;62.00;;;;;;;;;;4969552;28;20042;-69
2022/12/01 05:24:58;;;;;;;248.02;61.25;;;;;;;;;;4992167;28;20041;-69
2022/12/01 05:27:24;;;;;;;214.10;60.45;;;;;;;;;;4979648;28;20083;-69
2022/12/01 05:29:55;;;;;;;217.45;59.63;;;;;;;;;;4979334;28;20045;-69
2022/12/01 05:32:21;;;;;;;231.70;61.00;;;;;;;;;;4979795;28;20069;-73
2022/12/01 05:34:48;;;;;;;231.25;61.88;;;;;;;;;;4968873;28;20068;-72
2022/12/01 05:37:17;;;;;;;221.98;60.88;;;;;;;;;;4991774;28;20050;-72
2022/12/01 05:39:42;;;;;;;238.20;61.78;;;;;;;;;;4981501;28;20045;-74
2022/12/01 05:42:08;;;;;;;223.07;63.88;;;;;;;;;;4986454;28;20050;-74
2022/12/01 05:44:33;;;;;;;224.48;63.17;;;;;;;;;;4989282;28;20826;-74
2022/12/01 05:46:58;;;;;;;244.82;65.00;;;;;;;;;;5001418;28;20044;-74
2022/12/01 05:49:26;;;;;;;228.15;61.83;;;;;;;;;;4986930;28;20042;-74
2022/12/01 05:51:54;;;;;;;227.27;61.78;;;;;;;;;;4985467;28;20044;-74
2022/12/01 05:54:20;;;;;;;243.52;64.57;;;;;;;;;;4985920;28;20037;-74
2022/12/01 05:56:45;;;;;;;233.70;62.78;;;;;;;;;;4983179;28;20038;-74
2022/12/01 05:59:11;;;;;;;220.45;59.22;;;;;;;;;;4998333;28;20041;-74
2022/12/01 06:01:36;;;;;;;204.10;60.53;;;;;;;;;;4999853;28;20045;-71
2022/12/01 06:04:01;;;;;;;210.93;59.63;;;;;;;;;;4985014;28;20092;-71
2022/12/01 06:06:27;;;;;;;228.18;64.53;;;;;;;;;;4975163;28;20072;-71
2022/12/01 06:08:52;;;;;;;233.07;64.72;;;;;;;;;;4985942;28;20069;-71
2022/12/01 06:11:17;;;;;;;225.40;61.22;;;;;;;;;;4982472;28;20144;-71
2022/12/01 06:13:43;;;;;;;226.88;62.38;;;;;;;;;;4986177;28;20044;-71
2022/12/01 06:16:08;;;;;;;231.13;63.80;;;;;;;;;;4983819;28;20037;-74
2022/12/01 06:18:39;;;;;;;218.35;60.00;;;;;;;;;;4980095;28;20042;-73
2022/12/01 06:21:05;;;;;;;232.27;63.78;;;;;;;;;;4984101;28;20738;-74
2022/12/01 06:23:31;;;;;;;227.32;60.58;;;;;;;;;;4986098;28;20041;-74
2022/12/01 06:25:56;;;;;;;206.30;61.00;;;;;;;;;;4982317;28;20048;-70
2022/12/01 06:28:22;;;;;;;237.65;61.47;;;;;;;;;;5005763;28;20083;-70
2022/12/01 06:30:47;;;;;;;200.32;58.92;;;;;;;;;;4985891;28;21062;-71
2022/12/01 06:33:13;;;;;;;230.90;61.65;;;;;;;;;;4983241;28;20045;-70
2022/12/01 06:35:39;;;;;;;223.00;58.40;;;;;;;;;;4985303;28;20034;-70
2022/12/01 06:38:05;;;;;;;223.05;58.83;;;;;;;;;;5003744;28;20038;-70
2022/12/01 06:40:30;;;;;;;227.63;61.13;;;;;;;;;;4977923;28;20160;-70
2022/12/01 06:43:01;;;;;;;219.20;60.65;;;;;;;;;;4979517;28;20103;-70
2022/12/01 06:45:26;;;;;;;196.85;55.08;;;;;;;;;;4981414;28;20630;-70
2022/12/01 06:47:52;;;;;;;210.05;58.85;;;;;;;;;;4973750;28;20155;-71
2022/12/01 06:50:18;;;;;;;208.13;57.72;;;;;;;;;;4981494;28;20038;-70
2022/12/01 06:52:43;;;;;;;216.75;56.38;;;;;;;;;;4982616;28;20123;-71
2022/12/01 06:55:09;;;;;;;212.45;56.08;;;;;;;;;;4984127;28;20129;-70
2022/12/01 06:57:34;;;;;;;210.35;58.95;;;;;;;;;;4981911;28;20678;-70
2022/12/01 07:00:00;;;;;;;221.68;59.95;;;;;;;;;;4978186;28;20782;-70
2022/12/01 07:02:26;;;;;;;247.00;60.08;;;;;;;;;;4975817;28;20049;-70
2022/12/01 07:04:54;;;;;;;211.68;57.92;;;;;;;;;;4991930;28;20048;-70
2022/12/01 07:07:22;;;;;;;244.10;59.40;;;;;;;;;;5013599;28;20047;-72
2022/12/01 07:09:47;;;;;;;232.68;59.08;;;;;;;;;;5000813;28;20044;-72
2022/12/01 07:12:12;;;;;;;228.82;59.17;;;;;;;;;;5003424;28;20029;-70
2022/12/01 07:14:41;;;;;;;221.55;59.03;;;;;;;;;;4983546;28;20041;-70
2022/12/01 07:17:09;;;;;;;217.95;57.13;;;;;;;;;;4969850;28;21006;-70
2022/12/01 07:19:38;;;;;;;202.68;57.17;;;;;;;;;;4987358;28;20126;-69
2022/12/01 07:22:04;;;;;;;217.63;58.33;;;;;;;;;;4997886;28;22005;-69
2022/12/01 07:24:30;;;;;;;225.65;57.88;;;;;;;;;;4984895;28;20133;-69
2022/12/01 07:26:55;;;;;;;231.45;61.10;;;;;;;;;;5010540;28;20218;-69
2022/12/01 07:29:20;;;;;;;234.48;58.33;;;;;;;;;;4978360;28;20026;-69
2022/12/01 07:31:55;;;;;;;234.07;60.00;;;;;;;;;;4983891;28;20041;-69
2022/12/01 07:34:29;;;;;;;226.77;59.03;;;;;;;;;;4941939;28;20517;-69
2022/12/01 07:36:55;;;;;;;224.65;60.47;;;;;;;;;;4991562;28;20033;-68
2022/12/01 07:39:21;;;;;;;214.18;58.78;;;;;;;;;;4997525;28;20714;-69
2022/12/01 07:41:46;;;;;;;215.20;57.83;;;;;;;;;;4980835;28;20083;-69
2022/12/01 07:44:12;;;;;;;225.93;61.20;;;;;;;;;;4975203;28;20211;-69
2022/12/01 07:46:39;;;;;;;224.82;63.72;;;;;;;;;;5007968;28;20607;-69
2022/12/01 07:49:06;;;;;;;227.60;60.72;;;;;;;;;;4998842;28;20490;-69
2022/12/01 07:51:32;;;;;;;228.98;59.78;;;;;;;;;;5003236;28;20174;-69
2022/12/01 07:54:00;;;;;;;226.73;60.45;;;;;;;;;;5000810;28;20429;-69
2022/12/01 07:56:26;;;;;;;213.57;59.10;;;;;;;;;;4997279;28;20060;-69
2022/12/01 07:58:51;;;;;;;231.88;62.83;;;;;;;;;;4999802;28;20631;-69
2022/12/01 08:01:19;;;;;;;218.55;59.45;;;;;;;;;;5002773;28;20443;-71
2022/12/01 08:03:44;;;;;;;223.38;60.10;;;;;;;;;;4998339;28;20370;-71
2022/12/01 08:06:10;;;;;;;215.32;60.17;;;;;;;;;;4998964;28;20092;-71
2022/12/01 08:08:37;;;;;;;221.95;61.67;;;;;;;;;;4999358;28;20106;-70
2022/12/01 08:11:10;;;;;;;202.63;59.63;;;;;;;;;;5000616;28;20037;-71
2022/12/01 08:13:38;;;;;;;226.38;62.13;;;;;;;;;;5012929;28;20568;-71
2022/12/01 08:16:04;;;;;;;253.02;61.63;;;;;;;;;;4997373;28;20531;-70
2022/12/01 08:18:30;;;;;;;221.10;58.92;;;;;;;;;;4999980;28;20139;-68
2022/12/01 08:20:57;;;;;;;211.52;58.42;;;;;;;;;;5000015;28;20041;-70
2022/12/01 08:23:22;;;;;;;221.88;60.95;;;;;;;;;;4999919;28;20041;-70
2022/12/01 08:25:47;;;;;;;233.60;66.15;;;;;;;;;;4999702;28;20136;-70
2022/12/01 08:28:13;;;;;;;230.27;68.05;;;;;;;;;;4997606;28;20388;-70
2022/12/01 08:30:38;;;;;;;233.70;68.97;;;;;;;;;;4999617;28;20045;-70
2022/12/01 08:33:03;;;;;;;230.45;64.05;;;;;;;;;;4995694;28;20039;-70
2022/12/01 08:35:32;;;;;;;214.50;61.25;;;;;;;;;;4994266;28;20040;-70
2022/12/01 08:38:01;;;;;;;232.05;61.55;;;;;;;;;;4990939;28;20041;-70
2022/12/01 08:40:30;;;;;;;222.18;61.17;;;;;;;;;;5029693;28;20037;-68
2022/12/01 08:42:55;;;;;;;214.55;58.80;;;;;;;;;;4983609;28;20083;-70
2022/12/01 08:45:21;;;;;;;191.13;57.03;;;;;;;;;;4972280;28;20029;-70
2022/12/01 08:47:47;;;;;;;224.27;60.05;;;;;;;;;;4973505;28;20038;-70
2022/12/01 08:50:13;;;;;;;208.88;60.95;;;;;;;;;;4971272;28;20880;-70
2022/12/01 08:52:38;;;;;;;211.48;61.47;;;;;;;;;;4977929;28;20576;-70
2022/12/01 08:55:04;;;;;;;222.90;60.50;;;;;;;;;;4976907;28;20111;-69
2022/12/01 08:57:30;;;;;;;233.32;62.67;;;;;;;;;;4977029;28;20033;-69
2022/12/01 08:59:56;;;;;;;216.77;62.85;;;;;;;;;;4977514;28;21589;-69
2022/12/01 09:02:24;;;;;;;207.07;59.83;;;;;;;;;;4977078;28;20069;-69
2022/12/01 09:04:49;;;;;;;219.55;60.13;;;;;;;;;;5006388;28;20047;-69
2022/12/01 09:07:15;;;;;;;222.70;60.53;;;;;;;;;;4994565;28;20044;-69
2022/12/01 09:09:41;;;;;;;201.55;57.20;;;;;;;;;;4978623;28;20531;-70
2022/12/01 09:12:09;;;;;;;216.70;60.15;;;;;;;;;;4975095;28;20060;-70
2022/12/01 09:14:41;;;;;;;208.63;60.20;;;;;;;;;;4974864;28;20053;-69
2022/12/01 09:17:07;;;;;;;207.98;62.80;;;;;;;;;;4976587;28;20041;-69
2022/12/01 09:19:35;;;;;;;210.30;59.58;;;;;;;;;;4977135;28;20071;-69
2022/12/01 09:22:00;;;;;;;208.25;60.33;;;;;;;;;;4977931;28;20617;-69
2022/12/01 09:24:26;;;;;;;210.43;59.80;;;;;;;;;;4977810;28;20248;-69
2022/12/01 09:26:56;;;;;;;212.35;60.67;;;;;;;;;;4977806;28;20040;-69
2022/12/01 09:29:22;;;;;;;196.60;57.17;;;;;;;;;;4956664;28;21018;-69
2022/12/01 09:31:47;;;;;;;197.63;57.88;;;;;;;;;;4978948;28;20144;-70
2022/12/01 09:34:14;;;;;;;196.73;59.15;;;;;;;;;;5000846;28;21012;-70
2022/12/01 09:36:39;;;;;;;204.35;58.20;;;;;;;;;;4978168;28;20112;-69
2022/12/01 09:39:05;;;;;;;197.02;57.63;;;;;;;;;;4979563;28;20038;-70
2022/12/01 09:41:33;;;;;;;182.93;55.95;;;;;;;;;;5007069;28;20033;-70
2022/12/01 09:44:01;;;;;;;199.93;57.97;;;;;;;;;;4975458;28;20540;-70
2022/12/01 09:46:32;;;;;;;190.63;55.13;;;;;;;;;;4996569;28;20049;-69
2022/12/01 09:49:01;;;;;;;188.63;56.67;;;;;;;;;;4995427;28;20041;-70
2022/12/01 09:51:27;;;;;;;193.45;59.70;;;;;;;;;;5017524;28;20057;-69
2022/12/01 09:53:55;;;;;;;203.95;60.50;;;;;;;;;;4978113;28;20129;-69
2022/12/01 09:56:22;;;;;;;201.00;59.13;;;;;;;;;;4976755;28;20053;-69
2022/12/01 09:58:57;;;;;;;204.00;56.50;;;;;;;;;;4974255;28;20502;-69
2022/12/01 10:01:33;;;;;;;189.68;58.65;;;;;;;;;;4964902;28;20091;-69
2022/12/01 10:04:03;;;;;;;189.38;58.50;;;;;;;;;;4969442;28;20061;-70
2022/12/01 10:06:45;;;;;;;203.07;57.38;;;;;;;;;;4977210;28;21000;-69
2022/12/01 10:09:29;;;;;;;192.98;59.03;;;;;;;;;;4978195;28;20064;-69
2022/12/01 10:11:59;;;;;;;178.52;58.28;;;;;;;;;;4977956;28;20059;-69
2022/12/01 10:14:27;;;;;;;181.63;59.65;;;;;;;;;;4980082;28;20034;-69
2022/12/01 10:17:08;;;;;;;188.15;60.20;;;;;;;;;;4978172;28;20915;-69
2022/12/01 10:19:39;;;;;;;181.63;58.67;;;;;;;;;;5000623;28;21025;-69
2022/12/01 10:22:18;;;;;;;183.88;57.35;;;;;;;;;;4976290;28;22156;-70
2022/12/01 10:24:51;;;;;;;171.48;56.95;;;;;;;;;;4978182;28;20057;-69
2022/12/01 10:27:30;;;;;;;159.52;54.58;;;;;;;;;;4983203;28;20037;-69
2022/12/01 10:30:00;;;;;;;153.05;54.42;;;;;;;;;;4983356;28;20776;-69
2022/12/01 10:32:41;;;;;;;148.02;54.30;;;;;;;;;;5001033;28;20033;-69
2022/12/01 10:35:11;;;;;;;159.47;55.47;;;;;;;;;;4998862;28;20616;-69
2022/12/01 10:37:36;;;;;;;148.18;52.70;;;;;;;;;;4998555;28;20044;-69
2022/12/01 10:40:02;;;;;;;147.57;52.80;;;;;;;;;;4991678;28;20187;-69
2022/12/01 10:42:33;;;;;;;151.70;53.60;;;;;;;;;;4983116;28;20519;-70
2022/12/01 10:45:05;;;;;;;136.50;51.08;;;;;;;;;;4965689;28;20276;-69
2022/12/01 10:47:35;;;;;;;134.23;49.97;;;;;;;;;;4977652;28;20331;-69
2022/12/01 10:50:02;;;;;;;135.43;49.75;;;;;;;;;;5006953;28;21933;-69
2022/12/01 10:52:30;;;;;;;134.07;50.05;;;;;;;;;;4974596;28;20758;-68
2022/12/01 10:54:56;;;;;;;117.80;47.05;;;;;;;;;;4972409;28;20044;-68
2022/12/01 10:57:22;;;;;;;121.60;46.13;;;;;;;;;;4987629;28;20044;-68
2022/12/01 10:59:53;;;;;;;117.97;46.72;;;;;;;;;;4980237;28;20107;-68
2022/12/01 11:02:22;;;;;;;111.53;44.88;;;;;;;;;;4980675;28;20502;-69
2022/12/01 11:04:50;;;;;;;103.05;43.35;;;;;;;;;;4979333;28;20034;-69
2022/12/01 11:07:20;;;;;;;91.88;40.17;;;;;;;;;;4978406;28;20524;-68
2022/12/01 11:09:53;;;;;;;95.38;40.22;;;;;;;;;;4979247;28;20038;-68
2022/12/01 11:12:19;;;;;;;91.47;38.75;;;;;;;;;;4978351;28;20494;-68
2022/12/01 11:14:49;;;;;;;85.20;36.92;;;;;;;;;;4974024;28;20034;-68
2022/12/01 11:17:15;;;;;;;83.05;36.92;;;;;;;;;;4980844;28;20218;-68
2022/12/01 11:19:41;;;;;;;79.15;35.17;;;;;;;;;;4980435;28;20049;-68
2022/12/01 11:22:18;;;;;;;70.03;32.15;;;;;;;;;;4980734;28;20041;-67
2022/12/01 11:24:54;;;;;;;69.60;33.13;;;;;;;;;;4954425;28;20076;-68
2022/12/01 11:27:23;;;;;;;71.00;34.38;;;;;;;;;;4989979;28;20048;-67
2022/12/01 11:29:51;;;;;;;71.22;32.08;;;;;;;;;;4960114;28;20042;-68
2022/12/01 11:32:30;;;;;;;75.25;32.22;;;;;;;;;;4959455;28;20578;-68
2022/12/01 11:34:57;;;;;;;75.05;31.17;;;;;;;;;;4960683;28;20311;-67
2022/12/01 11:37:26;;;;;;;58.08;28.08;;;;;;;;;;4956577;28;20657;-68
2022/12/01 11:39:52;;;;;;;55.80;27.40;;;;;;;;;;4960474;28;20341;-68
2022/12/01 11:42:21;;;;;;;61.47;28.95;;;;;;;;;;4955502;28;20057;-68
2022/12/01 11:44:48;;;;;;;59.85;28.88;;;;;;;;;;4961162;28;20038;-68
2022/12/01 11:47:14;;;;;;;53.30;26.08;;;;;;;;;;4969683;28;20046;-68
2022/12/01 11:49:43;;;;;;;58.25;26.55;;;;;;;;;;4959251;28;21541;-67
2022/12/01 11:52:29;;;;;;;49.45;25.80;;;;;;;;;;4978559;28;20125;-67
2022/12/01 11:54:55;;;;;;;56.03;26.55;;;;;;;;;;4978189;28;20422;-67
2022/12/01 11:57:21;;;;;;;54.00;27.17;;;;;;;;;;4978349;28;20117;-67
2022/12/01 11:59:46;;;;;;;47.25;22.70;;;;;;;;;;4977135;28;20048;-67
2022/12/01 12:02:34;;;;;;;43.70;22.73;;;;;;;;;;4979778;28;20040;-67
2022/12/01 12:05:13;;;;;;;48.70;23.02;;;;;;;;;;4974667;28;20033;-67
2022/12/01 12:07:56;;;;;;;44.72;24.00;;;;;;;;;;4959478;28;21727;-68
2022/12/01 12:10:21;;;;;;;47.50;24.52;;;;;;;;;;4977757;28;20189;-67
2022/12/01 12:12:47;;;;;;;45.00;23.23;;;;;;;;;;4979488;28;20547;-68
2022/12/01 12:15:24;;;;;;;49.63;23.73;;;;;;;;;;4976768;28;20034;-67
2022/12/01 12:17:51;;;;;;;45.30;23.02;;;;;;;;;;4959489;28;20275;-67
2022/12/01 12:20:17;;;;;;;47.92;23.92;;;;;;;;;;4986187;28;20029;-67
2022/12/01 12:23:03;;;;;;;47.45;23.15;;;;;;;;;;5000096;28;20056;-67
2022/12/01 12:25:51;;;;;;;48.88;24.23;;;;;;;;;;4995008;28;20037;-68
2022/12/01 12:28:22;;;;;;;47.90;23.77;;;;;;;;;;4998618;28;20047;-67
2022/12/01 12:30:56;;;;;;;45.58;23.92;;;;;;;;;;4998706;28;20045;-67
2022/12/01 12:33:37;;;;;;;43.33;23.50;;;;;;;;;;5000087;28;20134;-68
2022/12/01 12:36:44;;;;;;;49.22;24.08;;;;;;;;;;4997311;28;20132;-68
2022/12/01 12:39:28;;;;;;;47.33;23.63;;;;;;;;;;4973658;28;20125;-67
2022/12/01 12:41:54;;;;;;;40.60;22.08;;;;;;;;;;4975921;28;20172;-67
2022/12/01 12:44:26;;;;;;;47.92;24.50;;;;;;;;;;4969270;28;20047;-67
2022/12/01 12:46:51;;;;;;;43.60;23.45;;;;;;;;;;4980459;28;20658;-67
2022/12/01 12:49:31;;;;;;;44.60;22.58;;;;;;;;;;4979255;28;20079;-69
2022/12/01 12:52:03;;;;;;;45.97;23.90;;;;;;;;;;4979132;28;20057;-67
2022/12/01 12:54:48;;;;;;;48.85;23.67;;;;;;;;;;4978787;28;20163;-67
2022/12/01 12:57:32;;;;;;;47.15;24.42;;;;;;;;;;5008127;28;20468;-67
2022/12/01 13:00:03;;;;;;;48.38;24.00;;;;;;;;;;4974985;28;21034;-67
2022/12/01 13:02:44;;;;;;;41.38;21.58;;;;;;;;;;4973153;28;20044;-67
2022/12/01 13:05:15;;;;;;;35.78;18.33;;;;;;;;;;4981243;28;20041;-67
2022/12/01 13:07:45;;;;;;;36.00;18.13;;;;;;;;;;4969878;28;20208;-67
2022/12/01 13:10:21;;;;;;;33.38;17.42;;;;;;;;;;4977890;28;20126;-67
2022/12/01 13:12:51;;;;;;;37.25;19.00;;;;;;;;;;4977002;28;21832;-67
2022/12/01 13:15:18;;;;;;;32.53;18.48;;;;;;;;;;4970347;28;20045;-66
2022/12/01 13:17:55;;;;;;;34.38;19.48;;;;;;;;;;4991956;28;20510;-67
2022/12/01 13:20:24;;;;;;;36.67;20.70;;;;;;;;;;4970025;28;20049;-66
2022/12/01 13:22:50;;;;;;;39.15;20.40;;;;;;;;;;4952146;28;20123;-67
2022/12/01 13:25:23;;;;;;;37.90;20.25;;;;;;;;;;4971749;28;20061;-67
2022/12/01 13:27:49;;;;;;;37.97;20.17;;;;;;;;;;4962597;28;20627;-67
2022/12/01 13:30:24;;;;;;;39.42;20.55;;;;;;;;;;5007425;28;20072;-67
2022/12/01 13:32:57;;;;;;;40.90;21.77;;;;;;;;;;4971849;28;20160;-67
2022/12/01 13:35:29;;;;;;;38.80;21.02;;;;;;;;;;4976225;28;20046;-67
2022/12/01 13:38:15;;;;;;;37.30;20.10;;;;;;;;;;4976872;28;20285;-67
2022/12/01 13:40:41;;;;;;;40.83;20.30;;;;;;;;;;4970040;28;20589;-67
2022/12/01 13:43:14;;;;;;;39.17;20.42;;;;;;;;;;4977144;28;20324;-67
2022/12/01 13:45:42;;;;;;;39.95;21.20;;;;;;;;;;4968919;28;20316;-67
2022/12/01 13:48:27;;;;;;;38.00;19.98;;;;;;;;;;4977198;28;20336;-66
2022/12/01 13:50:57;;;;;;;41.78;19.65;;;;;;;;;;4974175;28;20079;-67
2022/12/01 13:53:29;;;;;;;37.67;19.67;;;;;;;;;;4978628;28;20253;-66
2022/12/01 13:55:54;;;;;;;40.70;19.50;;;;;;;;;;4978738;28;20033;-66
2022/12/01 13:58:43;;;;;;;37.38;19.60;;;;;;;;;;4974167;28;20565;-66
2022/12/01 14:01:18;;;;;;;37.60;18.83;;;;;;;;;;4976930;28;20037;-66
2022/12/01 14:04:03;;;;;;;39.38;18.98;;;;;;;;;;4977053;28;20573;-66
2022/12/01 14:06:35;;;;;;;41.28;19.52;;;;;;;;;;4978800;28;20119;-66
2022/12/01 14:09:04;;;;;;;33.60;18.17;;;;;;;;;;4977918;28;20128;-66
2022/12/01 14:11:31;;;;;;;35.45;17.90;;;;;;;;;;4978944;28;21796;-66
2022/12/01 14:13:59;;;;;;;39.67;18.58;;;;;;;;;;4981082;28;20125;-67
2022/12/01 14:16:43;;;;;;;37.72;19.27;;;;;;;;;;4980104;28;20264;-67
2022/12/01 14:19:23;;;;;;;37.85;19.10;;;;;;;;;;4977019;28;20308;-67
2022/12/01 14:21:49;;;;;;;34.42;18.33;;;;;;;;;;5000361;28;20077;-67
2022/12/01 14:24:19;;;;;;;33.75;18.17;;;;;;;;;;4998892;28;20057;-67
2022/12/01 14:26:47;;;;;;;37.67;17.98;;;;;;;;;;4998778;28;20145;-67